createdAt,value
2019-05-07T00:01:02.956Z,1.30
2019-05-07T00:04:06.399Z,1.32
2019-05-07T00:07:09.883Z,1.20
2019-05-07T00:10:13.399Z,1.27
2019-05-07T00:13:16.893Z,1.35
2019-05-07T00:16:22.380Z,1.20
2019-05-07T00:19:25.794Z,1.65
2019-05-07T00:22:29.246Z,1.47
2019-05-07T00:25:33.031Z,1.30
2019-05-07T00:28:36.540Z,1.40
2019-05-07T00:31:42.002Z,1.47
2019-05-07T00:34:49.818Z,1.30
2019-05-07T00:38:02.548Z,1.30
2019-05-07T00:41:15.700Z,1.35
2019-05-07T00:44:19.425Z,1.30
2019-05-07T00:47:23.880Z,1.40
2019-05-07T00:50:33.125Z,1.37
2019-05-07T00:53:36.823Z,1.52
2019-05-07T00:56:42.900Z,1.20
2019-05-07T00:59:46.888Z,1.37
2019-05-07T01:02:52.394Z,1.40
2019-05-07T01:05:55.743Z,1.30
2019-05-07T01:08:59.241Z,1.42
2019-05-07T01:12:03.249Z,1.07
2019-05-07T01:15:06.790Z,1.20
2019-05-07T01:18:12.285Z,1.00
2019-05-07T01:21:15.529Z,1.30
2019-05-07T01:24:18.993Z,1.40
2019-05-07T01:27:22.815Z,1.55
2019-05-07T01:30:26.405Z,1.22
2019-05-07T01:33:38.419Z,1.00
2019-05-07T01:36:42.744Z,1.15
2019-05-07T01:39:47.343Z,1.20
2019-05-07T01:42:52.920Z,1.60
2019-05-07T01:45:56.146Z,1.27
2019-05-07T01:48:59.550Z,1.20
2019-05-07T01:52:04.040Z,1.45
2019-05-07T01:55:07.520Z,1.35
2019-05-07T01:58:12.535Z,1.40
2019-05-07T02:01:16.365Z,1.52
2019-05-07T02:04:32.654Z,1.50
2019-05-07T02:07:45.536Z,1.30
2019-05-07T02:11:08.042Z,1.12
2019-05-07T02:14:13.494Z,1.05
2019-05-07T02:17:16.719Z,1.22
2019-05-07T02:20:22.388Z,1.22
2019-05-07T02:23:25.510Z,1.20
2019-05-07T02:26:32.078Z,1.40
2019-05-07T02:29:38.039Z,1.50
2019-05-07T02:32:43.135Z,1.40
2019-05-07T02:35:45.663Z,1.10
2019-05-07T02:38:54.517Z,1.27
2019-05-07T02:41:59.012Z,1.20
2019-05-07T02:45:24.233Z,1.32
2019-05-07T02:48:33.283Z,1.27
2019-05-07T02:51:43.498Z,1.50
2019-05-07T02:55:13.169Z,1.30
2019-05-07T02:58:16.012Z,1.27
2019-05-07T03:01:22.456Z,1.30
2019-05-07T03:04:25.480Z,1.20
2019-05-07T03:07:33.185Z,1.25
2019-05-07T03:10:35.245Z,1.17
2019-05-07T03:13:39.765Z,1.12
2019-05-07T03:16:48.534Z,1.40
2019-05-07T03:19:53.193Z,1.42
2019-05-07T03:22:57.493Z,1.30
2019-05-07T03:26:06.693Z,1.40
2019-05-07T03:29:14.738Z,1.37
2019-05-07T03:32:39.525Z,1.20
2019-05-07T03:35:47.055Z,1.40
2019-05-07T03:38:53.796Z,1.22
2019-05-07T03:41:57.504Z,1.40
2019-05-07T03:45:23.056Z,1.45
2019-05-07T03:48:27.930Z,1.30
2019-05-07T03:51:32.987Z,1.50
2019-05-07T03:54:36.547Z,1.52
2019-05-07T03:57:43.255Z,1.40
2019-05-07T04:00:45.934Z,1.30
2019-05-07T04:03:49.429Z,1.30
2019-05-07T04:06:53.919Z,1.40
2019-05-07T04:09:59.383Z,1.20
2019-05-07T04:13:04.512Z,1.30
2019-05-07T04:16:08.163Z,1.47
2019-05-07T04:19:13.286Z,1.40
2019-05-07T04:22:19.390Z,1.40
2019-05-07T04:25:29.693Z,1.10
2019-05-07T04:28:55.199Z,1.30
2019-05-07T04:31:58.958Z,1.37
2019-05-07T04:35:12.540Z,1.25
2019-05-07T04:38:15.144Z,1.45
2019-05-07T04:41:18.850Z,1.32
2019-05-07T04:44:23.768Z,1.35
2019-05-07T04:47:38.694Z,1.37
2019-05-07T04:50:42.996Z,1.60
2019-05-07T04:53:42.929Z,1.30
2019-05-07T04:56:45.950Z,1.50
2019-05-07T04:59:49.484Z,1.15
2019-05-07T05:03:18.360Z,1.40
2019-05-07T05:06:24.203Z,1.27
2019-05-07T05:09:27.236Z,1.30
2019-05-07T05:12:32.652Z,1.47
2019-05-07T05:15:36.034Z,1.05
2019-05-07T05:18:41.931Z,1.00
2019-05-07T05:21:52.837Z,1.30
2019-05-07T05:25:27.565Z,1.05
2019-05-07T05:28:32.328Z,1.40
2019-05-07T05:31:36.221Z,1.05
2019-05-07T05:34:39.706Z,1.30
2019-05-07T05:37:43.380Z,1.30
2019-05-07T05:40:46.796Z,1.40
2019-05-07T05:44:09.353Z,1.40
2019-05-07T05:47:12.914Z,1.22
2019-05-07T05:50:16.442Z,1.27
2019-05-07T05:53:32.668Z,1.20
2019-05-07T05:57:02.604Z,1.17
2019-05-07T06:00:36.663Z,1.10
2019-05-07T06:03:56.842Z,1.02
2019-05-07T06:07:11.300Z,1.30
2019-05-07T06:10:33.001Z,1.37
2019-05-07T06:13:43.633Z,1.40
2019-05-07T06:17:22.402Z,1.20
2019-05-07T06:20:44.969Z,1.17
2019-05-07T06:23:52.918Z,1.30
2019-05-07T06:26:56.438Z,1.47
2019-05-07T06:30:04.342Z,1.20
2019-05-07T06:33:05.249Z,1.25
2019-05-07T06:36:08.727Z,1.10
2019-05-07T06:39:18.363Z,1.30
2019-05-07T06:42:42.753Z,1.30
2019-05-07T06:45:51.928Z,1.35
2019-05-07T06:48:56.637Z,1.30
2019-05-07T06:52:03.144Z,1.70
2019-05-07T06:55:08.331Z,1.37
2019-05-07T06:58:12.529Z,1.37
2019-05-07T07:01:32.289Z,1.50
2019-05-07T07:04:45.439Z,1.30
2019-05-07T07:07:56.131Z,1.25
2019-05-07T07:11:04.761Z,1.40
2019-05-07T07:14:08.331Z,1.40
2019-05-07T07:17:12.913Z,1.30
2019-05-07T07:20:16.544Z,1.37
2019-05-07T07:23:19.978Z,1.52
2019-05-07T07:26:24.457Z,1.62
2019-05-07T07:29:32.428Z,1.67
2019-05-07T07:32:38.433Z,1.85
2019-05-07T07:35:43.895Z,1.72
2019-05-07T07:38:49.471Z,2.00
2019-05-07T07:41:55.631Z,1.80
2019-05-07T07:45:15.282Z,2.00
2019-05-07T07:48:18.813Z,1.90
2019-05-07T07:51:36.853Z,1.80
2019-05-07T07:54:27.809Z,1.55
2019-05-07T07:57:45.441Z,1.82
2019-05-07T08:00:55.990Z,1.65
2019-05-07T08:03:59.461Z,1.92
2019-05-07T08:07:03.996Z,2.27
2019-05-07T08:10:08.519Z,2.27
2019-05-07T08:13:14.059Z,1.60
2019-05-07T08:16:17.458Z,1.70
2019-05-07T08:19:22.750Z,2.20
2019-05-07T08:22:26.208Z,2.02
2019-05-07T08:25:48.014Z,2.40
2019-05-07T08:28:52.402Z,2.10
2019-05-07T08:32:06.418Z,2.10
2019-05-07T08:35:32.686Z,2.10
2019-05-07T08:38:52.446Z,1.85
2019-05-07T08:41:54.996Z,2.10
2019-05-07T08:45:05.616Z,2.30
2019-05-07T08:48:14.206Z,1.80
2019-05-07T08:51:17.794Z,1.92
2019-05-07T08:54:23.336Z,2.37
2019-05-07T08:57:26.851Z,1.90
2019-05-07T09:00:32.622Z,2.33
2019-05-07T09:03:45.137Z,2.20
2019-05-07T09:06:49.614Z,2.27
2019-05-07T09:09:53.125Z,2.22
2019-05-07T09:12:56.696Z,2.22
2019-05-07T09:16:02.302Z,1.95
2019-05-07T09:19:05.600Z,2.08
2019-05-07T09:22:09.163Z,2.27
2019-05-07T09:25:15.010Z,2.10
2019-05-07T09:28:19.571Z,2.42
2019-05-07T09:31:32.102Z,2.25
2019-05-07T09:34:38.310Z,2.65
2019-05-07T09:37:42.131Z,2.80
2019-05-07T09:40:45.797Z,2.20
2019-05-07T09:43:49.248Z,2.15
2019-05-07T09:46:53.797Z,2.60
2019-05-07T09:50:04.766Z,2.58
2019-05-07T09:53:02.768Z,2.70
2019-05-07T09:56:06.350Z,2.40
2019-05-07T09:59:09.972Z,2.60
2019-05-07T10:02:13.520Z,2.45
2019-05-07T10:05:17.202Z,2.40
2019-05-07T10:08:21.760Z,2.67
2019-05-07T10:11:34.521Z,2.35
2019-05-07T10:14:38.148Z,2.70
2019-05-07T10:17:50.802Z,3.25
2019-05-07T10:20:54.457Z,2.90
2019-05-07T10:23:57.910Z,2.75
2019-05-07T10:27:02.237Z,2.67
2019-05-07T10:30:06.049Z,3.25
2019-05-07T10:33:09.620Z,3.70
2019-05-07T10:36:14.167Z,3.15
2019-05-07T10:39:18.789Z,2.98
2019-05-07T10:42:22.742Z,3.25
2019-05-07T10:45:58.483Z,2.60
2019-05-07T10:49:17.567Z,2.83
2019-05-07T10:52:27.109Z,2.52
2019-05-07T10:55:32.700Z,3.27
2019-05-07T10:58:36.024Z,2.90
2019-05-07T11:01:51.995Z,3.10
2019-05-07T11:04:56.731Z,2.65
2019-05-07T11:08:02.261Z,3.02
2019-05-07T11:11:05.396Z,2.95
2019-05-07T11:14:12.312Z,2.70
2019-05-07T11:17:25.290Z,2.87
2019-05-07T11:20:28.771Z,3.02
2019-05-07T11:23:33.298Z,3.00
2019-05-07T11:26:37.886Z,2.75
2019-05-07T11:29:42.952Z,3.00
2019-05-07T11:32:48.718Z,3.20
2019-05-07T11:35:54.279Z,3.00
2019-05-07T11:38:57.758Z,2.85
2019-05-07T11:42:13.217Z,2.83
2019-05-07T11:45:22.765Z,3.10
2019-05-07T11:48:26.945Z,2.70
2019-05-07T11:51:38.638Z,2.95
2019-05-07T11:54:43.306Z,3.27
2019-05-07T11:57:46.832Z,2.95
2019-05-07T12:00:55.540Z,2.72
2019-05-07T12:04:01.976Z,2.70
2019-05-07T12:07:05.312Z,2.90
2019-05-07T12:10:09.174Z,3.00
2019-05-07T12:13:12.945Z,2.98
2019-05-07T12:16:16.650Z,3.05
2019-05-07T12:19:22.671Z,3.08
2019-05-07T12:22:46.412Z,2.70
2019-05-07T12:25:49.894Z,2.72
2019-05-07T12:28:53.373Z,2.65
2019-05-07T12:32:05.532Z,2.80
2019-05-07T12:35:12.716Z,2.83
2019-05-07T12:38:16.469Z,2.87
2019-05-07T12:41:34.182Z,2.72
2019-05-07T12:44:37.926Z,2.95
2019-05-07T12:47:45.523Z,2.85
2019-05-07T12:50:49.024Z,2.80
2019-05-07T12:53:57.916Z,2.62
2019-05-07T12:57:07.281Z,2.67
2019-05-07T13:00:28.867Z,2.92
2019-05-07T13:03:39.768Z,2.67
2019-05-07T13:06:56.253Z,2.67
2019-05-07T13:09:59.799Z,2.70
2019-05-07T13:13:04.316Z,2.70
2019-05-07T13:16:07.806Z,2.50
2019-05-07T13:19:13.076Z,2.47
2019-05-07T13:22:16.651Z,2.47
2019-05-07T13:25:21.616Z,2.47
2019-05-07T13:28:25.491Z,2.70
2019-05-07T13:31:28.994Z,2.40
2019-05-07T13:34:34.197Z,2.47
2019-05-07T13:37:41.822Z,2.70
2019-05-07T13:41:12.572Z,2.35
2019-05-07T13:44:29.006Z,2.27
2019-05-07T13:47:40.592Z,2.87
2019-05-07T13:50:46.162Z,2.70
2019-05-07T13:53:49.630Z,2.77
2019-05-07T13:56:53.160Z,2.70
2019-05-07T13:59:56.626Z,2.45
2019-05-07T14:03:00.256Z,3.17
2019-05-07T14:06:04.558Z,2.70
2019-05-07T14:09:16.388Z,2.72
2019-05-07T14:12:19.837Z,2.65
2019-05-07T14:15:24.386Z,3.27
2019-05-07T14:18:27.882Z,2.77
2019-05-07T14:21:32.478Z,2.83
2019-05-07T14:24:36.131Z,2.60
2019-05-07T14:27:42.676Z,2.30
2019-05-07T14:30:45.959Z,1.95
2019-05-07T14:33:57.699Z,2.60
2019-05-07T14:37:26.432Z,2.30
2019-05-07T14:40:32.205Z,2.55
2019-05-07T14:43:49.667Z,2.17
2019-05-07T14:46:54.446Z,2.47
2019-05-07T14:49:58.015Z,2.60
2019-05-07T14:53:02.719Z,2.50
2019-05-07T14:56:06.547Z,2.65
2019-05-07T14:59:10.156Z,2.30
2019-05-07T15:02:13.621Z,2.20
2019-05-07T15:05:17.136Z,2.35
2019-05-07T15:08:21.987Z,2.35
2019-05-07T15:11:25.555Z,2.05
2019-05-07T15:14:31.332Z,1.87
2019-05-07T15:17:45.987Z,2.22
2019-05-07T15:20:49.570Z,2.12
2019-05-07T15:23:53.664Z,2.02
2019-05-07T15:26:57.469Z,2.05
2019-05-07T15:30:02.285Z,1.82
2019-05-07T15:33:05.839Z,2.12
2019-05-07T15:36:11.949Z,1.70
2019-05-07T15:39:15.511Z,2.00
2019-05-07T15:42:22.107Z,1.60
2019-05-07T15:45:26.410Z,1.70
2019-05-07T15:48:29.894Z,1.82
2019-05-07T15:51:34.424Z,1.95
2019-05-07T15:54:37.953Z,1.50
2019-05-07T15:57:42.813Z,1.80
2019-05-07T16:00:47.201Z,1.82
2019-05-07T16:03:54.312Z,1.47
2019-05-07T16:06:57.981Z,1.70
2019-05-07T16:10:01.581Z,1.98
2019-05-07T16:13:07.991Z,2.00
2019-05-07T16:16:12.490Z,2.10
2019-05-07T16:19:21.120Z,2.02
2019-05-07T16:22:32.765Z,2.00
2019-05-07T16:25:37.301Z,1.72
2019-05-07T16:28:41.720Z,1.90
2019-05-07T16:31:45.329Z,1.45
2019-05-07T16:34:48.820Z,1.57
2019-05-07T16:37:53.396Z,1.80
2019-05-07T16:40:56.858Z,1.90
2019-05-07T16:44:02.903Z,1.50
2019-05-07T16:47:07.542Z,1.70
2019-05-07T16:50:12.952Z,1.67
2019-05-07T16:53:27.432Z,1.47
2019-05-07T16:56:22.733Z,1.62
2019-05-07T16:59:26.565Z,1.82
2019-05-07T17:02:34.170Z,1.60
2019-05-07T17:05:37.746Z,1.60
2019-05-07T17:08:51.677Z,1.80
2019-05-07T17:12:01.324Z,1.75
2019-05-07T17:15:05.352Z,1.80
2019-05-07T17:18:08.960Z,1.70
2019-05-07T17:21:12.494Z,1.95
2019-05-07T17:24:15.963Z,1.80
2019-05-07T17:27:19.480Z,1.75
2019-05-07T17:30:22.961Z,1.90
2019-05-07T17:33:26.515Z,1.90
2019-05-07T17:36:29.967Z,1.98
2019-05-07T17:39:33.471Z,1.80
2019-05-07T17:42:36.986Z,1.77
2019-05-07T17:45:40.469Z,1.70
2019-05-07T17:48:43.977Z,1.70
2019-05-07T17:51:47.506Z,1.90
2019-05-07T17:54:52.781Z,1.80
2019-05-07T17:57:56.340Z,2.02
2019-05-07T18:01:02.587Z,2.10
2019-05-07T18:04:06.198Z,2.15
2019-05-07T18:07:12.026Z,2.10
2019-05-07T18:10:15.662Z,2.20
2019-05-07T18:13:22.274Z,2.22
2019-05-07T18:16:42.218Z,2.10
2019-05-07T18:19:48.512Z,1.67
2019-05-07T18:22:54.033Z,2.12
2019-05-07T18:25:58.734Z,2.20
2019-05-07T18:29:02.548Z,2.00
2019-05-07T18:32:06.752Z,2.22
2019-05-07T18:35:12.488Z,2.25
2019-05-07T18:38:15.627Z,2.10
2019-05-07T18:41:22.225Z,1.82
2019-05-07T18:44:25.485Z,2.00
2019-05-07T18:47:30.017Z,1.87
2019-05-07T18:50:34.541Z,2.25
2019-05-07T18:53:38.077Z,1.90
2019-05-07T18:56:42.163Z,2.05
2019-05-07T18:59:45.862Z,2.00
2019-05-07T19:02:52.318Z,2.05
2019-05-07T19:05:56.240Z,2.45
2019-05-07T19:09:00.677Z,2.00
2019-05-07T19:12:06.674Z,2.40
2019-05-07T19:15:12.311Z,2.02
2019-05-07T19:18:15.476Z,2.30
2019-05-07T19:21:18.978Z,2.10
2019-05-07T19:24:26.095Z,2.15
2019-05-07T19:27:28.843Z,2.15
2019-05-07T19:30:33.368Z,2.00
2019-05-07T19:33:36.880Z,1.95
2019-05-07T19:36:42.382Z,2.20
2019-05-07T19:39:49.606Z,1.70
2019-05-07T19:42:53.092Z,1.90
2019-05-07T19:45:57.633Z,1.90
2019-05-07T19:49:02.752Z,2.30
2019-05-07T19:52:06.475Z,2.08
2019-05-07T19:55:09.964Z,2.20
2019-05-07T19:58:13.469Z,2.20
2019-05-07T20:01:22.640Z,2.35
2019-05-07T20:04:25.803Z,2.10
2019-05-07T20:07:31.963Z,2.10
2019-05-07T20:10:42.763Z,2.25
2019-05-07T20:13:46.342Z,2.27
2019-05-07T20:16:53.004Z,2.00
2019-05-07T20:19:56.224Z,2.08
2019-05-07T20:23:02.640Z,2.27
2019-05-07T20:26:07.959Z,2.25
2019-05-07T20:29:12.313Z,2.20
2019-05-07T20:32:15.955Z,2.42
2019-05-07T20:35:23.543Z,2.65
2019-05-07T20:38:28.075Z,2.20
2019-05-07T20:41:33.624Z,2.05
2019-05-07T20:44:37.150Z,2.15
2019-05-07T20:47:42.256Z,2.30
2019-05-07T20:50:45.776Z,2.70
2019-05-07T20:54:06.923Z,2.40
2019-05-07T20:57:22.322Z,2.22
2019-05-07T21:00:29.825Z,2.60
2019-05-07T21:03:33.346Z,2.65
2019-05-07T21:06:37.891Z,2.27
2019-05-07T21:09:42.450Z,2.42
2019-05-07T21:12:47.951Z,2.22
2019-05-07T21:15:58.413Z,2.33
2019-05-07T21:19:02.187Z,2.42
2019-05-07T21:22:05.818Z,2.40
2019-05-07T21:25:09.320Z,2.40
2019-05-07T21:28:12.842Z,2.60
2019-05-07T21:31:17.355Z,2.70
2019-05-07T21:34:22.993Z,2.40
2019-05-07T21:37:26.829Z,1.95
2019-05-07T21:40:32.050Z,2.45
2019-05-07T21:43:35.671Z,2.47
2019-05-07T21:46:39.170Z,2.60
2019-05-07T21:49:43.142Z,2.47
2019-05-07T21:52:51.416Z,2.52
2019-05-07T21:56:07.022Z,2.90
2019-05-07T21:59:14.227Z,2.45
2019-05-07T22:02:22.217Z,2.72
2019-05-07T22:05:25.776Z,2.55
2019-05-07T22:08:29.262Z,2.75
2019-05-07T22:11:32.779Z,2.60
2019-05-07T22:14:36.268Z,2.65
2019-05-07T22:17:39.767Z,2.65
2019-05-07T22:20:44.309Z,2.90
2019-05-07T22:23:47.803Z,2.90
2019-05-07T22:26:53.333Z,2.65
2019-05-07T22:29:57.865Z,2.77
2019-05-07T22:33:12.890Z,2.33
2019-05-07T22:36:16.400Z,2.77
2019-05-07T22:39:21.933Z,2.60
2019-05-07T22:42:25.204Z,2.72
2019-05-07T22:45:28.692Z,2.72
2019-05-07T22:48:32.565Z,2.83
2019-05-07T22:51:36.088Z,2.90
2019-05-07T22:54:42.741Z,2.55
2019-05-07T22:58:06.294Z,2.52
2019-05-07T23:01:13.129Z,2.75
2019-05-07T23:04:16.541Z,2.87
2019-05-07T23:07:22.196Z,2.85
2019-05-07T23:10:25.148Z,2.75
2019-05-07T23:13:28.669Z,2.60
2019-05-07T23:16:32.506Z,2.95
2019-05-07T23:19:37.084Z,3.10
2019-05-07T23:22:42.843Z,2.50
2019-05-07T23:25:46.372Z,2.92
2019-05-07T23:28:51.762Z,2.65
2019-05-07T23:31:56.006Z,2.47
2019-05-07T23:35:05.443Z,3.20
2019-05-07T23:38:09.202Z,2.80
2019-05-07T23:41:24.964Z,2.65
2019-05-07T23:44:28.445Z,3.10
2019-05-07T23:47:31.959Z,2.75
2019-05-07T23:50:35.458Z,2.67
2019-05-07T23:53:40.003Z,2.92
2019-05-07T23:56:44.495Z,3.02
2019-05-07T23:59:49.049Z,3.15
